createdAt,value
2023-09-02T00:01:17.813Z,100820.66
2023-09-02T00:08:00.177Z,100818.38
2023-09-02T00:14:42.578Z,100819.59
2023-09-02T00:21:25.957Z,100819.88
2023-09-02T00:28:08.275Z,100827.31
2023-09-02T00:34:50.683Z,100827.56
2023-09-02T00:41:51.527Z,100834.09
2023-09-02T00:48:34.155Z,100820.31
2023-09-02T00:55:17.054Z,100820.63
2023-09-02T01:02:02.202Z,100821.66
2023-09-02T01:08:44.774Z,100821.84
2023-09-02T01:15:27.671Z,100823.75
2023-09-02T01:22:34.824Z,100827.34
2023-09-02T01:29:22.965Z,100836.06
2023-09-02T01:36:06.531Z,100829.91
2023-09-02T01:42:56.269Z,100833.41
2023-09-02T01:49:39.167Z,100832.47
2023-09-02T01:56:22.358Z,100832.44
2023-09-02T02:03:06.309Z,100837.63
2023-09-02T02:09:53.247Z,100838.41
2023-09-02T02:16:35.746Z,100845.41
2023-09-02T02:23:18.444Z,100850.59
2023-09-02T02:30:01.980Z,100850.59
2023-09-02T02:36:44.731Z,100851.56
2023-09-02T02:43:27.840Z,100852.41
2023-09-02T02:50:10.631Z,100849.75
2023-09-02T02:56:53.146Z,100850.66
2023-09-02T03:03:36.954Z,100859.50
2023-09-02T03:10:22.426Z,100860.41
2023-09-02T03:17:04.950Z,100862.22
2023-09-02T03:23:47.805Z,100862.28
2023-09-02T03:30:31.193Z,100870.22
2023-09-02T03:37:14.678Z,100870.22
2023-09-02T03:43:57.604Z,100875.53
2023-09-02T03:51:12.884Z,100886.16
2023-09-02T03:57:58.687Z,100881.78
2023-09-02T04:04:42.314Z,100883.59
2023-09-02T04:11:24.874Z,100880.16
2023-09-02T04:18:07.971Z,100881.00
2023-09-02T04:24:50.682Z,100894.25
2023-09-02T04:31:33.630Z,100899.53
2023-09-02T04:38:16.363Z,100909.19
2023-09-02T04:45:02.846Z,100914.47
2023-09-02T04:51:47.107Z,100918.81
2023-09-02T04:58:29.644Z,100927.50
2023-09-02T05:05:12.657Z,100931.84
2023-09-02T05:11:55.266Z,100943.13
2023-09-02T05:18:38.674Z,100948.28
2023-09-02T05:25:21.363Z,100948.91
2023-09-02T05:32:04.211Z,100957.50
2023-09-02T05:38:46.563Z,100956.34
2023-09-02T05:45:29.286Z,100959.53
2023-09-02T05:52:11.681Z,100949.56
2023-09-02T05:58:53.991Z,100955.31
2023-09-02T06:05:36.300Z,100971.72
2023-09-02T06:12:18.743Z,100976.59
2023-09-02T06:19:01.365Z,100982.31
2023-09-02T06:25:43.651Z,100981.84
2023-09-02T06:32:25.945Z,100990.22
2023-09-02T06:39:08.292Z,100994.97
2023-09-02T06:45:50.907Z,100986.44
2023-09-02T06:52:33.390Z,100999.13
2023-09-02T06:59:15.743Z,100987.91
2023-09-02T07:06:09.769Z,100990.78
2023-09-02T07:12:53.972Z,101004.25
2023-09-02T07:19:36.271Z,100999.13
2023-09-02T07:26:18.888Z,101002.81
2023-09-02T07:33:04.042Z,101008.28
2023-09-02T07:39:46.309Z,101017.13
2023-09-02T07:46:28.788Z,101031.22
2023-09-02T07:53:11.091Z,101047.16
2023-09-02T07:59:53.406Z,101046.97
2023-09-02T08:06:37.271Z,101059.25
2023-09-02T08:13:19.860Z,101069.66
2023-09-02T08:20:03.834Z,101080.19
2023-09-02T08:26:48.340Z,101088.22
2023-09-02T08:33:30.679Z,101096.88
2023-09-02T08:40:16.477Z,101110.09
2023-09-02T08:47:02.413Z,101123.75
2023-09-02T08:53:47.540Z,101112.97
2023-09-02T09:00:33.038Z,101122.59
2023-09-02T09:07:17.391Z,101136.94
2023-09-02T09:14:03.065Z,101140.59
2023-09-02T09:20:45.763Z,101148.56
2023-09-02T09:27:28.055Z,101154.53
2023-09-02T09:34:12.016Z,101150.75
2023-09-02T09:40:54.271Z,101161.56
2023-09-02T09:47:36.934Z,101166.91
2023-09-02T09:54:19.265Z,101165.75
2023-09-02T10:01:01.805Z,101161.00
2023-09-02T10:07:57.456Z,101163.06
2023-09-02T10:14:45.157Z,101173.19
2023-09-02T10:21:30.318Z,101176.00
2023-09-02T10:28:21.374Z,101173.78
2023-09-02T10:35:23.262Z,101189.19
2023-09-02T10:42:06.560Z,101188.94
2023-09-02T10:48:50.708Z,101202.78
2023-09-02T10:55:33.265Z,101198.69
2023-09-02T11:02:15.644Z,101203.47
2023-09-02T11:08:58.199Z,101218.81
2023-09-02T11:15:40.553Z,101215.19
2023-09-02T11:22:56.167Z,101226.41
2023-09-02T11:29:38.624Z,101227.19
2023-09-02T11:36:20.946Z,101227.16
2023-09-02T11:43:03.564Z,101230.22
2023-09-02T11:49:46.161Z,101246.94
2023-09-02T11:56:28.711Z,101234.00
2023-09-02T12:03:11.425Z,101232.19
2023-09-02T12:09:56.774Z,101238.03
2023-09-02T12:16:42.738Z,101244.78
2023-09-02T12:23:25.479Z,101234.69
2023-09-02T12:30:09.179Z,101234.50
2023-09-02T12:36:52.028Z,101235.91
2023-09-02T12:43:34.338Z,101240.19
2023-09-02T12:50:16.830Z,101240.22
2023-09-02T12:56:59.042Z,101243.19
2023-09-02T13:03:42.398Z,101246.34
2023-09-02T13:10:28.219Z,101249.88
2023-09-02T13:17:14.415Z,101256.91
2023-09-02T13:23:58.999Z,101256.59
2023-09-02T13:30:41.586Z,101251.00
2023-09-02T13:37:31.076Z,101259.09
2023-09-02T13:44:14.185Z,101256.06
2023-09-02T13:51:45.111Z,101260.16
2023-09-02T14:06:04.601Z,101263.38
2023-09-02T14:12:48.785Z,101271.78
2023-09-02T14:19:31.052Z,101270.50
2023-09-02T14:26:14.990Z,101270.84
2023-09-02T14:33:01.871Z,101276.84
2023-09-02T14:39:44.240Z,101278.88
2023-09-02T14:46:27.805Z,101290.94
2023-09-02T14:53:10.249Z,101295.72
2023-09-02T14:59:53.264Z,101294.69
2023-09-02T15:06:37.264Z,101298.41
2023-09-02T15:13:20.289Z,101307.56
2023-09-02T15:20:08.364Z,101302.22
2023-09-02T15:26:53.813Z,101305.34
2023-09-02T15:33:37.420Z,101307.56
2023-09-02T15:49:09.902Z,101320.06
2023-09-02T15:55:55.719Z,101322.28
2023-09-02T16:02:38.114Z,101330.56
2023-09-02T16:09:25.665Z,101334.13
2023-09-02T16:16:11.654Z,101332.50
2023-09-02T16:22:54.104Z,101338.09
2023-09-02T16:29:36.716Z,101338.09
2023-09-02T16:36:21.891Z,101335.69
2023-09-02T16:43:04.587Z,101344.41
2023-09-02T16:49:47.117Z,101340.63
2023-09-02T16:56:32.593Z,101354.31
2023-09-02T17:03:18.442Z,101351.00
2023-09-02T17:10:01.111Z,101347.88
2023-09-02T17:16:48.901Z,101351.34
2023-09-02T17:23:31.593Z,101356.69
2023-09-02T17:30:14.721Z,101362.97
2023-09-02T17:36:57.012Z,101368.19
2023-09-02T17:43:41.836Z,101368.78
2023-09-02T17:50:24.758Z,101375.66
2023-09-02T17:57:09.772Z,101382.59
2023-09-02T18:03:52.111Z,101393.19
2023-09-02T18:10:34.380Z,101403.44
2023-09-02T18:17:17.173Z,101412.56
2023-09-02T18:23:59.505Z,101406.44
2023-09-02T18:30:41.804Z,101410.78
2023-09-02T18:37:24.178Z,101416.91
2023-09-02T18:44:08.877Z,101425.75
2023-09-02T18:50:54.422Z,101428.03
2023-09-02T18:57:36.969Z,101425.06
2023-09-02T19:04:19.292Z,101439.94
2023-09-02T19:11:02.739Z,101435.28
2023-09-02T19:17:45.143Z,101445.66
2023-09-02T19:24:27.583Z,101442.63
2023-09-02T19:31:10.020Z,101445.78
2023-09-02T19:37:52.452Z,101447.94
2023-09-02T19:44:34.820Z,101445.59
2023-09-02T19:51:17.458Z,101452.19
2023-09-02T19:57:59.812Z,101449.94
2023-09-02T20:04:42.280Z,101443.22
2023-09-02T20:11:24.862Z,101441.69
2023-09-02T20:18:07.479Z,101443.09
2023-09-02T20:24:49.929Z,101446.13
2023-09-02T20:31:33.438Z,101439.41
2023-09-02T20:38:15.830Z,101436.88
2023-09-02T20:44:58.289Z,101438.69
2023-09-02T20:51:40.869Z,101443.25
2023-09-02T20:58:23.408Z,101446.00
2023-09-02T21:05:06.662Z,101452.09
2023-09-02T21:11:49.138Z,101449.31
2023-09-02T21:18:31.574Z,101445.69
2023-09-02T21:25:14.148Z,101447.41
2023-09-02T21:31:56.832Z,101437.63
2023-09-02T21:38:42.272Z,101441.13
2023-09-02T21:45:28.779Z,101443.78
2023-09-02T21:52:11.342Z,101442.97
2023-09-02T21:58:56.643Z,101453.59
2023-09-02T22:05:38.915Z,101458.13
2023-09-02T22:12:23.962Z,101459.09
2023-09-02T22:19:10.250Z,101466.25
2023-09-02T22:26:04.919Z,101459.34
2023-09-02T22:32:47.401Z,101456.81
2023-09-02T22:39:32.303Z,101461.38
2023-09-02T22:46:14.755Z,101457.97
2023-09-02T22:52:57.250Z,101468.78
2023-09-02T22:59:42.144Z,101464.53
2023-09-02T23:06:24.537Z,101464.69
2023-09-02T23:13:06.932Z,101468.41
2023-09-02T23:19:56.610Z,101478.38
2023-09-02T23:26:39.176Z,101482.09
2023-09-02T23:33:21.529Z,101490.25
2023-09-02T23:40:05.194Z,101490.44
2023-09-02T23:46:47.550Z,101486.16
2023-09-02T23:53:30.056Z,101500.44
